Bookmark and Share
Track history (hours):
 

Callsign CUPM6 (name unknown)

Last reported at 2014-Apr-16 23:31 UTC. Time now 2014-Apr-19 09:28 UTC.
Position N 37°08' W 008°32'.

Length 27 m.

Type: Ship. MMSI: 263236000.

NotesDate/timePositionNaut miles runAvg speedWind from/ knotsBaromVisibWave heightAir tempDewpointWater temp
2014-Apr-16 23:31N 37°08' W 008°32'0 0.0
2014-Apr-16 22:33N 37°08' W 008°32'2 1.6
2014-Apr-16 21:33N 37°06' W 008°32'9 9.4
2014-Apr-16 20:33N 36°59' W 008°24'9 9.2
2014-Apr-16 19:32N 36°53' W 008°16'5 5.5
2014-Apr-16 18:33N 36°49' W 008°11'3 3.0
2014-Apr-16 17:30N 36°50' W 008°07'3 3.0
2014-Apr-16 16:33N 36°51' W 008°03'3 3.1
2014-Apr-16 15:34N 36°51' W 007°60'3 3.0
2014-Apr-16 14:33N 36°52' W 007°56'1 0.5
2014-Apr-16 13:20N 36°52' W 007°57'2 3.0
2014-Apr-16 12:33N 36°51' W 007°59'3 2.9
2014-Apr-16 11:25N 36°51' W 008°03'4 3.0
2014-Apr-16 10:05N 36°49' W 008°08'2 2.2
2014-Apr-16 09:19N 36°50' W 008°06'2 3.0
2014-Apr-16 08:33N 36°51' W 008°04'3 3.0
2014-Apr-16 07:34N 36°51' W 007°60'3 0.4
2014-Apr-16 00:06N 36°49' W 007°58'3 1.4
2014-Apr-15 22:11N 36°48' W 008°02'2 2.9
2014-Apr-15 21:32N 36°49' W 007°60'7 2.3
2014-Apr-15 18:33N 36°49' W 008°08'4 3.1
2014-Apr-15 17:05N 36°49' W 008°14'2 3.1
2014-Apr-15 16:33N 36°49' W 008°12'3 3.0
2014-Apr-15 15:34N 36°49' W 008°08'4 1.0
2014-Apr-15 11:34N 36°49' W 008°13'7 2.2
2014-Apr-15 08:34N 36°49' W 008°21'6 3.0
2014-Apr-15 06:33N 36°48' W 008°13'3 3.0
2014-Apr-15 05:30N 36°49' W 008°09'1 0.0
2014-Apr-13 17:33N 36°49' W 008°10'3 2.9
2014-Apr-13 16:33N 36°49' W 008°14'3 2.9
2014-Apr-13 15:33N 36°49' W 008°18'4 3.0
2014-Apr-13 14:23N 36°49' W 008°22'1 1.0
2014-Apr-13 13:33N 36°49' W 008°21'3 3.1
2014-Apr-13 12:33N 36°49' W 008°17'3 3.2
2014-Apr-13 11:33N 36°49' W 008°13'3 3.3
2014-Apr-13 10:33N 36°49' W 008°09'1 1.3
2014-Apr-13 09:24N 36°49' W 008°07'3 2.9
2014-Apr-13 08:14N 36°50' W 008°03'3 3.1
2014-Apr-13 07:07N 36°51' W 007°59'2 3.6
2014-Apr-13 06:30N 36°51' W 007°57'4 2.9
2014-Apr-13 05:16N 36°48' W 007°59'3 3.3
2014-Apr-13 04:14N 36°48' W 008°04'2 3.0
2014-Apr-13 03:34N 36°48' W 008°01'3 2.9
2014-Apr-13 02:31N 36°49' W 007°58'9 2.1
2014-Apr-12 22:17N 36°47' W 008°08'12 6.7
2014-Apr-12 20:32N 36°49' W 008°23'8 8.2
2014-Apr-12 19:33N 36°52' W 008°32'2 2.3
2014-Apr-12 18:34N 36°51' W 008°35'3 2.8
2014-Apr-12 17:32N 36°51' W 008°38'3 3.1
2014-Apr-12 16:33N 36°50' W 008°42'8 1.9
2014-Apr-12 12:24N 36°49' W 008°52'2 0.4
2014-Apr-12 08:30N 36°51' W 008°51'40 2.2
2014-Apr-11 14:32N 37°28' W 009°08'3 0.4
2014-Apr-11 06:20N 37°30' W 009°05'8 7.3
2014-Apr-11 05:13N 37°34' W 009°14'1 1.5
2014-Apr-11 04:28N 37°35' W 009°15'3 2.8
2014-Apr-11 03:25N 37°38' W 009°16'5 2.8
2014-Apr-11 01:33N 37°43' W 009°19'3 2.9
2014-Apr-11 00:33N 37°46' W 009°17'5 5.0
2014-Apr-10 23:32N 37°49' W 009°13'10 9.8
2014-Apr-10 22:33N 37°53' W 009°01'8 8.1
2014-Apr-10 21:32N 37°57' W 008°52'0 0.0
2014-Apr-10 20:32N 37°57' W 008°52'0 0.0
2014-Apr-10 19:33N 37°57' W 008°52'0 0.0
2014-Apr-10 18:31N 37°57' W 008°52'0 0.0
2014-Apr-10 17:33N 37°57' W 008°52'9 8.8
2014-Apr-10 16:33N 37°53' W 009°03'8 8.5
2014-Apr-10 15:33N 37°51' W 009°13'1 0.9
2014-Apr-10 14:33N 37°52' W 009°13'3 2.7
2014-Apr-10 13:33N 37°55' W 009°13'2 2.4
2014-Apr-10 12:31N 37°57' W 009°13'2 1.8
2014-Apr-10 11:33N 37°59' W 009°12'3 2.9
2014-Apr-10 10:34N 37°56' W 009°14'3 2.9
2014-Apr-10 09:33N 37°53' W 009°13'3 2.8
2014-Apr-10 08:33N 37°50' W 009°14'3 2.9
2014-Apr-10 07:33N 37°48' W 009°15'3 2.6
2014-Apr-10 06:31N 37°45' W 009°15'2 2.4
2014-Apr-10 05:34N 37°43' W 009°14'5 4.0
2014-Apr-10 04:25N 37°39' W 009°18'3 3.0
2014-Apr-10 03:33N 37°37' W 009°16'3 2.8
2014-Apr-10 02:33N 37°34' W 009°15'2 1.2
2014-Apr-10 00:33N 37°37' W 009°15'3 2.9
2014-Apr-09 23:33N 37°39' W 009°16'3 2.8
2014-Apr-09 22:33N 37°42' W 009°18'3 2.4
2014-Apr-09 21:31N 37°44' W 009°18'3 3.1
2014-Apr-09 20:33N 37°45' W 009°14'7 7.1
2014-Apr-09 19:33N 37°41' W 009°07'2 2.1
2014-Apr-09 18:33N 37°43' W 009°08'3 2.7
2014-Apr-09 17:33N 37°45' W 009°07'3 2.6
2014-Apr-09 16:33N 37°48' W 009°07'3 3.1
2014-Apr-09 15:33N 37°51' W 009°08'2 1.9
2014-Apr-09 14:33N 37°49' W 009°08'3 2.8
2014-Apr-09 13:33N 37°46' W 009°07'3 2.7
2014-Apr-09 12:33N 37°44' W 009°08'3 2.8
2014-Apr-09 11:33N 37°41' W 009°06'2 1.8
2014-Apr-09 10:30N 37°40' W 009°05'2 1.6
2014-Apr-09 09:33N 37°41' W 009°05'1 1.3
2014-Apr-09 08:33N 37°42' W 009°06'3 2.7
2014-Apr-09 07:33N 37°40' W 009°06'3 2.8
2014-Apr-09 06:33N 37°37' W 009°06'6 5.7
2014-Apr-09 05:33N 37°31' W 009°05'32 7.2
2014-Apr-09 01:03N 37°00' W 008°52'4 8.9
2014-Apr-09 00:33N 37°02' W 008°47'9 8.6
2014-Apr-08 23:32N 37°04' W 008°36'5 5.2
2014-Apr-08 22:32N 37°08' W 008°32'0 0.0
2014-Apr-08 21:30N 37°08' W 008°32'0 0.0
2014-Apr-08 20:30N 37°08' W 008°32'0 0.0
2014-Apr-08 19:31N 37°08' W 008°32'0 0.0
2014-Apr-08 18:31N 37°08' W 008°32'0 0.0
2014-Apr-08 17:31N 37°08' W 008°32'0 0.0
2014-Apr-08 16:29N 37°08' W 008°32'0 0.0
2014-Apr-08 15:27N 37°08' W 008°32'0 0.0
2014-Apr-08 14:30N 37°08' W 008°32'0 0.0
2014-Apr-08 13:32N 37°08' W 008°32'0 0.0
2014-Apr-08 12:26N 37°08' W 008°32'0 0.0
2014-Apr-08 11:29N 37°08' W 008°32'0 0.0
2014-Apr-08 10:29N 37°08' W 008°32'0 0.0
2014-Apr-08 09:29N 37°08' W 008°32'0 0.0
2014-Apr-08 08:23N 37°08' W 008°32'0 0.0
2014-Apr-08 07:26N 37°08' W 008°32'0 0.0
2014-Apr-08 06:26N 37°08' W 008°32'0 0.0
2014-Apr-08 05:26N 37°08' W 008°32'0 0.0
2014-Apr-08 04:25N 37°08' W 008°32'0 0.0
2014-Apr-08 03:29N 37°08' W 008°32'0 0.0
2014-Apr-08 02:32N 37°08' W 008°32'0 0.0
2014-Apr-08 01:32N 37°08' W 008°32'0 0.0
2014-Apr-08 00:33N 37°08' W 008°32'0 0.0
2014-Apr-07 23:27N 37°08' W 008°32'0 0.0
2014-Apr-07 22:30N 37°08' W 008°32'0 0.0
2014-Apr-07 21:29N 37°08' W 008°32'0 0.0
2014-Apr-07 20:32N 37°08' W 008°32'0 0.0
2014-Apr-07 19:33N 37°08' W 008°32'0 0.0
2014-Apr-07 17:30N 37°08' W 008°32'0 0.0
2014-Apr-07 16:32N 37°08' W 008°32'0 0.0
2014-Apr-07 15:25N 37°08' W 008°32'0 0.0
2014-Apr-07 14:20N 37°08' W 008°32'  

Dump ship's entire track history

sailing weather and tide predictions

Ship Status Report: callsign CUPM6